Time;durP1;ratioP1;P1;durP2;ratioP2;P2;SDS_P1;SDS_P2;PMS_P1;PMS_P2;Temp;Humidity;BMP_temperature;BMP_pressure;BME280_temperature;BME280_humidity;BME280_pressure;Samples;Min_cycle;Max_cycle;Signal;HPM_P1;HPM_P2
2021/10/03 00:02:00;;;;;;;8.13;7.20;;;11.20;99.90;;;;;;5032723;28;20053;-91
2021/10/03 00:04:29;;;;;;;8.90;7.82;;;11.20;99.90;;;;;;5032400;28;20532;-87
2021/10/03 00:06:56;;;;;;;8.10;6.82;;;11.20;99.90;;;;;;5032463;28;20133;-88
2021/10/03 00:09:23;;;;;;;11.65;7.78;;;11.30;99.90;;;;;;5031856;28;20064;-88
2021/10/03 00:11:51;;;;;;;8.15;6.45;;;11.30;99.90;;;;;;5032062;28;20145;-88
2021/10/03 00:14:20;;;;;;;8.27;6.63;;;11.30;99.90;;;;;;5032529;28;20046;-88
2021/10/03 00:16:49;;;;;;;12.50;7.38;;;11.40;99.90;;;;;;5031971;28;20065;-89
2021/10/03 00:19:17;;;;;;;7.47;6.60;;;11.30;99.90;;;;;;5032994;28;20072;-89
2021/10/03 00:21:43;;;;;;;7.55;6.18;;;11.30;99.90;;;;;;5031931;28;20490;-88
2021/10/03 00:24:12;;;;;;;7.00;6.30;;;11.30;99.90;;;;;;5033088;28;20049;-88
2021/10/03 00:26:40;;;;;;;7.50;6.43;;;11.30;99.90;;;;;;5032201;28;20128;-88
2021/10/03 00:29:07;;;;;;;9.63;6.22;;;11.30;99.90;;;;;;5032022;28;20050;-86
2021/10/03 00:31:34;;;;;;;8.48;6.18;;;11.20;99.90;;;;;;5032167;28;20089;-89
2021/10/03 00:34:01;;;;;;;6.72;6.05;;;11.20;99.90;;;;;;5032305;28;20128;-87
2021/10/03 00:36:28;;;;;;;6.28;5.68;;;11.20;99.90;;;;;;5032887;28;20050;-88
2021/10/03 00:38:54;;;;;;;7.78;6.10;;;11.20;99.90;;;;;;5033321;28;20045;-88
2021/10/03 00:41:21;;;;;;;9.27;6.50;;;11.10;99.90;;;;;;5041830;28;20105;-88
2021/10/03 00:43:48;;;;;;;9.35;6.88;;;11.00;99.90;;;;;;5055294;28;20041;-88
2021/10/03 00:46:15;;;;;;;7.18;6.18;;;11.00;99.90;;;;;;5034115;28;20041;-88
2021/10/03 00:48:42;;;;;;;8.93;6.15;;;11.00;99.90;;;;;;5032929;28;20054;-89
2021/10/03 00:51:09;;;;;;;9.32;6.20;;;11.00;99.90;;;;;;5031716;28;20136;-89
2021/10/03 00:53:36;;;;;;;6.38;5.78;;;11.00;99.90;;;;;;5031567;28;20053;-89
2021/10/03 00:56:04;;;;;;;6.95;6.25;;;11.00;99.90;;;;;;5032979;28;20053;-89
2021/10/03 00:58:30;;;;;;;6.70;5.72;;;11.00;99.90;;;;;;5035735;28;20053;-88
2021/10/03 01:00:57;;;;;;;10.38;6.45;;;11.00;99.90;;;;;;5035811;28;20466;-88
2021/10/03 01:03:25;;;;;;;7.70;6.35;;;11.00;99.90;;;;;;5036179;28;20060;-88
2021/10/03 01:05:52;;;;;;;11.65;6.22;;;11.00;99.90;;;;;;5036327;28;20046;-89
2021/10/03 01:08:19;;;;;;;9.18;6.85;;;11.00;99.90;;;;;;5035415;28;20059;-88
2021/10/03 01:10:45;;;;;;;8.68;5.72;;;11.00;99.90;;;;;;5035234;28;20045;-89
2021/10/03 01:13:12;;;;;;;13.00;6.82;;;10.90;99.90;;;;;;5035568;28;20120;-88
2021/10/03 01:15:42;;;;;;;9.07;7.13;;;11.00;99.90;;;;;;5035419;28;20132;-89
2021/10/03 01:18:10;;;;;;;8.00;6.40;;;10.90;99.90;;;;;;5035246;28;20470;-89
2021/10/03 01:20:38;;;;;;;6.30;5.70;;;10.90;99.90;;;;;;5035079;28;20070;-88
2021/10/03 01:23:05;;;;;;;8.73;6.75;;;10.90;99.90;;;;;;5036365;28;20053;-89
2021/10/03 01:25:34;;;;;;;9.65;6.78;;;10.90;99.90;;;;;;5035831;28;20045;-89
2021/10/03 01:28:02;;;;;;;6.88;6.28;;;11.00;99.90;;;;;;5035094;28;20046;-88
2021/10/03 01:30:30;;;;;;;8.95;6.10;;;10.90;99.90;;;;;;5035112;28;20061;-89
2021/10/03 01:32:56;;;;;;;9.32;6.43;;;11.00;99.90;;;;;;5036073;28;20050;-89
2021/10/03 01:35:23;;;;;;;8.57;5.97;;;10.90;99.90;;;;;;5034726;28;20056;-88
2021/10/03 01:37:50;;;;;;;7.38;6.30;;;11.00;99.90;;;;;;5034709;28;20574;-89
2021/10/03 01:40:18;;;;;;;9.25;5.82;;;11.00;99.90;;;;;;5034726;28;20418;-88
2021/10/03 01:42:45;;;;;;;7.75;5.68;;;11.00;99.90;;;;;;5035377;28;20053;-89
2021/10/03 01:45:15;;;;;;;6.43;5.75;;;10.90;99.90;;;;;;5034133;28;20050;-88
2021/10/03 01:48:08;;;;;;;6.13;5.60;;;11.00;99.90;;;;;;5034612;28;20053;-88
2021/10/03 01:50:42;;;;;;;7.03;5.90;;;10.90;99.90;;;;;;5035495;28;20045;-88
2021/10/03 01:53:11;;;;;;;10.07;6.30;;;10.90;99.90;;;;;;5034529;28;20415;-89
2021/10/03 01:55:38;;;;;;;7.43;6.47;;;11.00;99.90;;;;;;5034127;28;20045;-88
2021/10/03 01:58:07;;;;;;;9.57;7.20;;;11.00;99.90;;;;;;5036527;28;20091;-88
2021/10/03 02:00:36;;;;;;;9.32;6.30;;;10.90;99.90;;;;;;5052087;28;20097;-88
2021/10/03 02:03:05;;;;;;;6.75;6.15;;;11.00;99.90;;;;;;5051047;28;20103;-88
2021/10/03 02:05:41;;;;;;;7.57;6.20;;;11.00;99.90;;;;;;5034800;28;20483;-89
2021/10/03 02:08:10;;;;;;;10.52;6.80;;;11.00;99.90;;;;;;5029652;28;20088;-88
2021/10/03 02:10:39;;;;;;;8.85;6.40;;;11.00;99.90;;;;;;5034039;28;20075;-89
2021/10/03 02:13:08;;;;;;;8.50;6.57;;;11.00;99.90;;;;;;5033903;28;20053;-88
2021/10/03 02:15:36;;;;;;;8.07;6.07;;;11.00;99.90;;;;;;5033842;28;20059;-88
2021/10/03 02:18:05;;;;;;;9.18;6.13;;;11.00;99.90;;;;;;5034845;28;20122;-90
2021/10/03 02:20:32;;;;;;;8.68;7.07;;;11.00;99.90;;;;;;5033701;28;20059;-88
2021/10/03 02:23:00;;;;;;;10.45;6.20;;;11.00;99.90;;;;;;5033875;28;20049;-88
2021/10/03 02:25:27;;;;;;;9.43;6.47;;;11.00;99.90;;;;;;5033589;28;20050;-89
2021/10/03 02:27:54;;;;;;;10.50;7.25;;;11.00;99.90;;;;;;5034651;28;20060;-89
2021/10/03 02:30:21;;;;;;;7.82;6.18;;;11.00;99.90;;;;;;5033828;28;20052;-89
2021/10/03 02:32:47;;;;;;;7.07;6.38;;;11.00;99.90;;;;;;5033611;28;20071;-88
2021/10/03 02:35:15;;;;;;;11.98;7.22;;;11.00;99.90;;;;;;5033075;28;20053;-87
2021/10/03 02:37:42;;;;;;;10.60;6.70;;;11.00;99.90;;;;;;5034388;28;20091;-88
2021/10/03 02:40:16;;;;;;;9.52;6.43;;;10.90;99.90;;;;;;5033572;28;20059;-88
2021/10/03 02:42:42;;;;;;;10.55;7.35;;;11.00;99.90;;;;;;5033395;28;20055;-89
2021/10/03 02:45:10;;;;;;;7.18;5.95;;;11.00;99.90;;;;;;5034351;28;20080;-89
2021/10/03 02:47:37;;;;;;;7.15;6.15;;;11.00;99.90;;;;;;5033158;28;20045;-88
2021/10/03 02:50:06;;;;;;;7.03;6.38;;;11.00;99.90;;;;;;5034620;28;20133;-88
2021/10/03 02:52:33;;;;;;;6.88;6.13;;;11.00;99.90;;;;;;5033496;28;20057;-88
2021/10/03 02:54:59;;;;;;;10.27;6.65;;;11.00;99.90;;;;;;5034007;28;20141;-88
2021/10/03 02:57:26;;;;;;;8.88;6.45;;;11.10;99.90;;;;;;5033211;28;20514;-88
2021/10/03 02:59:53;;;;;;;10.57;7.45;;;11.00;99.90;;;;;;5033267;28;20045;-89
2021/10/03 03:02:19;;;;;;;11.93;7.07;;;11.10;99.90;;;;;;5034038;28;20088;-88
2021/10/03 03:04:46;;;;;;;9.35;7.45;;;11.00;99.90;;;;;;5033168;28;20053;-88
2021/10/03 03:07:13;;;;;;;14.27;6.97;;;11.00;99.90;;;;;;5033863;28;20046;-89
2021/10/03 03:09:40;;;;;;;7.95;6.65;;;11.00;99.90;;;;;;5033051;28;20407;-88
2021/10/03 03:12:07;;;;;;;8.82;7.85;;;10.90;99.90;;;;;;5033050;28;20064;-88
2021/10/03 03:14:34;;;;;;;9.50;7.13;;;10.90;99.90;;;;;;5032626;28;20049;-88
2021/10/03 03:17:13;;;;;;;8.05;7.18;;;10.90;99.90;;;;;;5035272;28;20061;-89
2021/10/03 03:19:40;;;;;;;9.15;6.80;;;10.90;99.90;;;;;;5054326;28;20080;-88
2021/10/03 03:22:07;;;;;;;10.88;8.15;;;10.90;99.90;;;;;;5042140;28;20129;-89
2021/10/03 03:24:34;;;;;;;10.05;7.95;;;10.90;99.90;;;;;;5033739;28;20052;-88
2021/10/03 03:27:00;;;;;;;10.77;7.78;;;10.90;99.90;;;;;;5032737;28;20080;-88
2021/10/03 03:29:27;;;;;;;11.43;7.45;;;11.00;99.90;;;;;;5032410;28;20053;-88
2021/10/03 03:31:55;;;;;;;9.80;7.47;;;11.00;99.90;;;;;;5033664;28;20049;-89
2021/10/03 03:34:22;;;;;;;8.77;7.68;;;11.00;99.90;;;;;;5032435;28;20059;-88
2021/10/03 03:36:49;;;;;;;10.73;8.50;;;11.00;99.90;;;;;;5033601;28;20056;-88
2021/10/03 03:39:16;;;;;;;13.88;8.25;;;11.00;99.90;;;;;;5033659;28;20055;-88
2021/10/03 03:41:43;;;;;;;11.60;7.50;;;11.00;99.90;;;;;;5033451;28;20057;-88
2021/10/03 03:44:10;;;;;;;13.35;8.88;;;11.00;99.90;;;;;;5032287;28;20053;-89
2021/10/03 03:46:37;;;;;;;16.50;8.73;;;11.10;99.90;;;;;;5032537;28;20055;-89
2021/10/03 03:49:04;;;;;;;14.35;8.90;;;11.10;99.90;;;;;;5032324;28;20104;-89
2021/10/03 03:51:31;;;;;;;11.73;8.60;;;11.20;99.90;;;;;;5033360;28;20446;-89
2021/10/03 03:53:58;;;;;;;14.73;9.18;;;11.20;99.90;;;;;;5033391;28;20050;-89
2021/10/03 03:56:25;;;;;;;13.48;8.77;;;11.30;99.90;;;;;;5033298;28;20042;-89
2021/10/03 03:58:51;;;;;;;14.50;8.60;;;11.30;99.90;;;;;;5032397;28;20049;-89
2021/10/03 04:01:20;;;;;;;10.68;8.25;;;11.40;99.90;;;;;;5032396;28;20115;-88
2021/10/03 04:03:47;;;;;;;10.18;8.43;;;11.40;99.90;;;;;;5032234;28;20057;-89
2021/10/03 04:06:14;;;;;;;14.90;8.80;;;11.50;99.90;;;;;;5032401;28;20087;-89
2021/10/03 04:08:41;;;;;;;9.43;6.63;;;11.40;99.90;;;;;;5032273;28;20133;-89
2021/10/03 04:11:08;;;;;;;8.32;7.07;;;11.40;99.90;;;;;;5032429;28;20046;-88
2021/10/03 04:13:35;;;;;;;8.98;6.60;;;11.50;99.90;;;;;;5032320;28;20252;-89
2021/10/03 04:16:02;;;;;;;10.35;7.35;;;11.40;99.90;;;;;;5032938;28;20048;-88
2021/10/03 04:18:29;;;;;;;9.60;6.85;;;11.40;99.90;;;;;;5032192;28;20060;-88
2021/10/03 04:20:56;;;;;;;12.15;6.72;;;11.40;99.90;;;;;;5032409;28;20081;-88
2021/10/03 04:23:22;;;;;;;7.95;6.57;;;11.40;99.90;;;;;;5032198;28;20071;-89
2021/10/03 04:25:49;;;;;;;10.05;7.45;;;11.30;99.90;;;;;;5032884;28;20045;-88
2021/10/03 04:28:16;;;;;;;13.15;7.00;;;11.30;99.90;;;;;;5032983;28;20053;-89
2021/10/03 04:30:43;;;;;;;9.35;8.23;;;11.20;99.90;;;;;;5035281;28;20481;-89
2021/10/03 04:33:10;;;;;;;12.40;7.72;;;11.20;99.90;;;;;;5037094;28;20045;-89
2021/10/03 04:35:37;;;;;;;8.50;7.03;;;11.20;99.90;;;;;;5039050;28;20056;-88
2021/10/03 04:38:04;;;;;;;11.18;7.57;;;11.20;99.90;;;;;;5059996;28;20113;-88
2021/10/03 04:40:30;;;;;;;10.77;7.32;;;11.10;99.90;;;;;;5047798;28;20132;-89
2021/10/03 04:42:57;;;;;;;11.23;8.57;;;11.10;99.90;;;;;;5036498;28;20053;-88
2021/10/03 04:45:24;;;;;;;9.98;7.55;;;10.90;99.90;;;;;;5035740;28;20055;-88
2021/10/03 04:47:51;;;;;;;11.25;8.43;;;11.00;99.90;;;;;;5034921;28;20059;-89
2021/10/03 04:50:18;;;;;;;15.57;8.32;;;10.90;99.90;;;;;;5035224;28;20446;-89
2021/10/03 04:52:45;;;;;;;12.00;7.90;;;10.90;99.90;;;;;;5035416;28;20118;-88
2021/10/03 04:55:12;;;;;;;10.40;7.57;;;10.90;99.90;;;;;;5035542;28;20045;-89
2021/10/03 04:57:39;;;;;;;10.23;8.10;;;11.00;99.90;;;;;;5036632;28;20056;-88
2021/10/03 05:00:08;;;;;;;13.15;7.93;;;11.00;99.90;;;;;;5035683;28;20508;-88
2021/10/03 05:02:35;;;;;;;10.07;7.38;;;11.00;99.90;;;;;;5035709;28;20045;-87
2021/10/03 05:05:03;;;;;;;9.90;7.65;;;11.00;99.90;;;;;;5035405;28;20096;-88
2021/10/03 05:07:30;;;;;;;13.07;7.15;;;10.90;99.90;;;;;;5035079;28;20051;-88
2021/10/03 05:09:57;;;;;;;14.95;7.95;;;10.90;99.90;;;;;;5036140;28;20046;-89
2021/10/03 05:12:24;;;;;;;12.95;7.72;;;10.90;99.90;;;;;;5036243;28;20500;-88
2021/10/03 05:14:50;;;;;;;14.15;8.00;;;10.90;99.90;;;;;;5035540;28;20045;-89
2021/10/03 05:17:17;;;;;;;13.35;8.82;;;10.90;99.90;;;;;;5036163;28;20063;-87
2021/10/03 05:19:44;;;;;;;16.13;8.82;;;10.90;99.90;;;;;;5036015;28;20557;-89
2021/10/03 05:22:10;;;;;;;9.07;7.30;;;10.90;99.90;;;;;;5036089;28;20052;-88
2021/10/03 05:24:37;;;;;;;9.98;7.53;;;10.90;99.90;;;;;;5034984;28;20053;-89
2021/10/03 05:27:04;;;;;;;9.95;8.10;;;11.00;99.90;;;;;;5034513;28;20041;-89
2021/10/03 05:29:31;;;;;;;9.10;7.63;;;11.00;99.90;;;;;;5034883;28;20049;-89
2021/10/03 05:31:57;;;;;;;11.10;8.07;;;11.00;99.90;;;;;;5036094;28;20146;-89
2021/10/03 05:34:24;;;;;;;10.02;7.38;;;11.10;99.90;;;;;;5034833;28;20049;-89
2021/10/03 05:36:51;;;;;;;10.32;8.35;;;11.10;99.90;;;;;;5034781;28;20072;-90
2021/10/03 05:39:18;;;;;;;9.07;7.93;;;11.10;99.90;;;;;;5034841;28;20137;-88
2021/10/03 05:41:44;;;;;;;12.77;8.32;;;11.10;99.90;;;;;;5034381;28;20055;-89
2021/10/03 05:44:11;;;;;;;9.23;7.70;;;11.20;99.90;;;;;;5033417;28;20053;-89
2021/10/03 05:46:38;;;;;;;9.52;8.13;;;11.20;99.90;;;;;;5035492;28;20053;-88
2021/10/03 05:49:05;;;;;;;11.45;8.23;;;11.30;99.90;;;;;;5034423;28;20049;-88
2021/10/03 05:51:33;;;;;;;10.73;7.65;;;11.30;99.90;;;;;;5034476;28;20095;-89
2021/10/03 05:54:00;;;;;;;7.85;6.95;;;11.50;99.90;;;;;;5036222;28;20051;-89
2021/10/03 05:56:27;;;;;;;9.48;7.68;;;11.50;99.90;;;;;;5056769;28;20060;-89
2021/10/03 05:58:53;;;;;;;10.82;7.68;;;11.60;99.90;;;;;;5049448;28;20076;-89
2021/10/03 06:01:20;;;;;;;14.45;8.77;;;11.70;99.90;;;;;;5034147;28;20050;-88
2021/10/03 06:03:47;;;;;;;9.38;7.75;;;11.70;99.90;;;;;;5035234;28;20057;-88
2021/10/03 06:06:14;;;;;;;11.50;7.43;;;11.80;99.90;;;;;;5032786;28;20132;-89
2021/10/03 06:08:41;;;;;;;11.25;8.52;;;11.90;99.90;;;;;;5034004;28;20045;-90
2021/10/03 06:11:07;;;;;;;14.00;8.05;;;12.00;99.90;;;;;;5033771;28;20407;-89
2021/10/03 06:13:34;;;;;;;8.15;7.35;;;12.10;99.90;;;;;;5033505;28;20042;-89
2021/10/03 06:16:01;;;;;;;9.13;7.18;;;12.30;99.90;;;;;;5032985;28;20049;-89
2021/10/03 06:18:28;;;;;;;8.18;6.70;;;12.50;99.90;;;;;;5033326;28;20139;-89
2021/10/03 06:20:56;;;;;;;6.88;6.20;;;12.60;99.90;;;;;;5034506;28;20081;-88
2021/10/03 06:23:22;;;;;;;10.38;7.00;;;12.70;99.90;;;;;;5033102;28;20041;-89
2021/10/03 06:25:49;;;;;;;7.65;6.43;;;12.90;99.90;;;;;;5032774;28;20049;-88
2021/10/03 06:28:16;;;;;;;5.93;5.32;;;13.00;99.90;;;;;;5032865;28;20049;-88
2021/10/03 06:30:43;;;;;;;6.10;5.38;;;13.10;99.90;;;;;;5032912;28;20089;-88
2021/10/03 06:33:10;;;;;;;6.38;5.70;;;13.20;99.90;;;;;;5034062;28;20082;-89
2021/10/03 06:35:36;;;;;;;7.32;5.82;;;13.20;99.90;;;;;;5032733;28;20508;-89
2021/10/03 06:38:03;;;;;;;11.27;6.28;;;13.30;99.90;;;;;;5033221;28;20461;-87
2021/10/03 06:40:30;;;;;;;5.80;5.30;;;13.50;99.90;;;;;;5033993;28;20061;-88
2021/10/03 06:42:57;;;;;;;12.10;5.47;;;13.70;99.90;;;;;;5032825;28;20045;-88
2021/10/03 06:45:24;;;;;;;8.05;4.20;;;13.90;99.90;;;;;;5032386;28;20516;-88
2021/10/03 06:47:50;;;;;;;5.82;4.68;;;14.20;99.90;;;;;;5032408;28;20049;-88
2021/10/03 06:50:18;;;;;;;8.40;4.43;;;14.50;99.90;;;;;;5032630;28;20050;-89
2021/10/03 06:52:45;;;;;;;6.10;4.60;;;14.50;99.90;;;;;;5032448;28;20504;-88
2021/10/03 06:55:17;;;;;;;4.30;4.00;;;14.70;99.90;;;;;;5033536;28;20046;-87
2021/10/03 06:57:43;;;;;;;6.53;4.68;;;14.90;99.90;;;;;;5033412;28;20493;-88
2021/10/03 07:00:10;;;;;;;4.32;4.03;;;15.00;99.90;;;;;;5032517;28;20048;-87
2021/10/03 07:02:40;;;;;;;4.82;4.35;;;15.10;99.90;;;;;;5032780;28;20092;-87
2021/10/03 07:05:07;;;;;;;4.38;3.95;;;15.20;99.90;;;;;;5032073;28;20084;-87
2021/10/03 07:07:34;;;;;;;3.85;3.55;;;15.40;99.90;;;;;;5032090;28;20059;-88
2021/10/03 07:10:02;;;;;;;5.00;4.28;;;15.50;99.90;;;;;;5032499;28;20056;-87
2021/10/03 07:12:29;;;;;;;3.92;3.65;;;15.80;99.90;;;;;;5034284;28;20049;-87
2021/10/03 07:14:56;;;;;;;5.32;4.15;;;16.00;99.90;;;;;;5042518;28;20041;-87
2021/10/03 07:17:23;;;;;;;4.88;3.88;;;16.10;99.90;;;;;;5051611;28;20097;-87
2021/10/03 07:19:50;;;;;;;3.40;3.10;;;16.20;99.90;;;;;;5035195;28;20056;-88
2021/10/03 07:22:17;;;;;;;6.72;4.10;;;16.40;99.90;;;;;;5033368;28;20052;-87
2021/10/03 07:24:44;;;;;;;5.90;3.70;;;16.40;99.90;;;;;;5032760;28;20059;-88
2021/10/03 07:27:10;;;;;;;4.45;3.97;;;16.50;99.90;;;;;;5033118;28;20561;-88
2021/10/03 07:29:37;;;;;;;4.55;4.15;;;16.50;99.90;;;;;;5031971;28;20051;-88
2021/10/03 07:32:07;;;;;;;3.60;3.30;;;16.50;99.90;;;;;;5031869;28;20057;-88
2021/10/03 07:34:35;;;;;;;5.43;3.95;;;16.60;99.90;;;;;;5031902;28;20081;-88
2021/10/03 07:37:03;;;;;;;5.85;3.60;;;16.60;99.90;;;;;;5033056;28;20090;-88
2021/10/03 07:39:32;;;;;;;3.45;3.15;;;16.70;99.90;;;;;;5032265;28;20076;-88
2021/10/03 07:41:59;;;;;;;5.20;3.38;;;16.80;99.90;;;;;;5032899;28;20047;-88
2021/10/03 07:44:26;;;;;;;3.78;3.47;;;16.80;99.90;;;;;;5031110;28;20068;-89
2021/10/03 07:46:52;;;;;;;3.28;3.10;;;16.80;99.90;;;;;;5031520;28;20045;-88
2021/10/03 07:49:19;;;;;;;3.88;3.58;;;16.90;99.90;;;;;;5032990;28;20151;-88
2021/10/03 07:51:46;;;;;;;4.50;3.83;;;16.90;99.90;;;;;;5031419;28;20057;-88
2021/10/03 07:54:13;;;;;;;4.07;3.28;;;17.00;99.90;;;;;;5031810;28;20132;-88
2021/10/03 07:56:40;;;;;;;6.80;4.40;;;17.00;99.90;;;;;;5032644;28;20223;-90
2021/10/03 07:59:07;;;;;;;5.20;3.17;;;17.00;99.90;;;;;;5031238;28;20479;-89
2021/10/03 08:01:34;;;;;;;5.15;3.17;;;17.00;99.90;;;;;;5034352;28;20045;-91
2021/10/03 08:04:02;;;;;;;3.75;3.45;;;17.10;99.90;;;;;;5032076;28;20046;-88
2021/10/03 08:06:29;;;;;;;3.38;3.17;;;17.20;99.90;;;;;;5035719;28;20055;-92
2021/10/03 08:08:56;;;;;;;3.58;3.28;;;17.20;99.90;;;;;;5035898;28;20133;-88
2021/10/03 08:11:23;;;;;;;4.07;3.70;;;17.30;99.90;;;;;;5036515;28;20364;-88
2021/10/03 08:13:51;;;;;;;3.75;3.20;;;17.30;99.90;;;;;;5034610;28;20681;-88
2021/10/03 08:16:21;;;;;;;3.47;3.15;;;17.30;99.90;;;;;;5035960;28;20084;-88
2021/10/03 08:18:48;;;;;;;3.42;2.80;;;17.20;99.90;;;;;;5036235;28;20045;-87
2021/10/03 08:21:16;;;;;;;3.20;2.90;;;17.30;99.90;;;;;;5036411;28;20128;-90
2021/10/03 08:23:43;;;;;;;3.95;3.50;;;17.50;99.90;;;;;;5035283;28;20507;-87
2021/10/03 08:26:12;;;;;;;3.65;3.35;;;17.60;99.90;;;;;;5035551;28;20051;-88
2021/10/03 08:28:41;;;;;;;3.15;2.83;;;17.50;99.90;;;;;;5035086;28;20053;-88
2021/10/03 08:31:08;;;;;;;3.67;3.35;;;17.60;99.90;;;;;;5035929;28;20065;-89
2021/10/03 08:33:36;;;;;;;3.50;3.20;;;17.60;99.90;;;;;;5036503;28;20136;-87
2021/10/03 08:36:04;;;;;;;3.20;2.90;;;17.60;99.90;;;;;;5040040;28;20063;-89
2021/10/03 08:38:31;;;;;;;3.08;2.75;;;17.70;99.90;;;;;;5043538;28;20045;-88
2021/10/03 08:41:00;;;;;;;6.13;3.33;;;17.80;99.90;;;;;;5035672;28;20051;-88
2021/10/03 08:43:28;;;;;;;3.83;3.13;;;17.90;99.90;;;;;;5035174;28;20053;-88
2021/10/03 08:46:06;;;;;;;3.78;3.20;;;18.00;99.90;;;;;;5037131;28;20144;-88
2021/10/03 08:48:34;;;;;;;6.60;3.53;;;17.90;99.90;;;;;;5036258;28;20045;-87
2021/10/03 08:51:01;;;;;;;3.30;3.00;;;18.10;99.90;;;;;;5035687;28;20498;-88
2021/10/03 08:53:28;;;;;;;3.05;2.60;;;18.30;99.90;;;;;;5035311;28;20075;-88
2021/10/03 08:55:56;;;;;;;3.85;3.40;;;18.60;99.90;;;;;;5035527;28;20053;-88
2021/10/03 08:58:24;;;;;;;3.40;3.10;;;18.90;99.90;;;;;;5035502;28;20045;-88
2021/10/03 09:00:51;;;;;;;4.30;3.40;;;19.20;99.90;;;;;;5036365;28;20136;-88
2021/10/03 09:03:19;;;;;;;6.80;3.17;;;19.30;99.90;;;;;;5034974;28;20513;-88
2021/10/03 09:05:51;;;;;;;3.50;3.13;;;19.60;99.90;;;;;;5035294;28;20054;-88
2021/10/03 09:08:21;;;;;;;3.25;3.05;;;19.80;99.90;;;;;;5036182;28;20041;-88
2021/10/03 09:11:00;;;;;;;3.10;2.90;;;20.10;99.90;;;;;;5035115;28;20063;-88
2021/10/03 09:13:31;;;;;;;2.58;2.40;;;20.30;99.90;;;;;;5035481;28;20396;-88
2021/10/03 09:16:10;;;;;;;3.70;2.50;;;20.30;99.90;;;;;;5034041;28;20145;-88
2021/10/03 09:18:42;;;;;;;3.83;2.88;;;20.40;99.90;;;;;;5035732;28;20144;-88
2021/10/03 09:21:12;;;;;;;3.20;3.00;;;20.50;99.90;;;;;;5035033;28;20482;-87
2021/10/03 09:23:39;;;;;;;4.40;2.80;;;20.50;99.90;;;;;;5035650;28;20061;-89
2021/10/03 09:26:12;;;;;;;3.10;2.90;;;20.40;99.90;;;;;;5035230;28;20119;-87
2021/10/03 09:28:39;;;;;;;3.17;2.88;;;20.50;99.90;;;;;;5034707;28;20049;-88
2021/10/03 09:31:09;;;;;;;3.28;2.70;;;20.70;99.90;;;;;;5034935;28;20045;-87
2021/10/03 09:33:58;;;;;;;3.10;2.70;;;20.70;99.90;;;;;;5035766;28;20169;-88
2021/10/03 09:36:29;;;;;;;4.07;2.58;;;20.80;99.90;;;;;;5034132;28;20558;-88
2021/10/03 09:39:07;;;;;;;3.10;2.78;;;20.90;99.90;;;;;;5034683;28;20042;-88
2021/10/03 09:41:37;;;;;;;5.10;3.10;;;20.90;99.90;;;;;;5034153;28;20046;-88
2021/10/03 09:44:13;;;;;;;5.47;2.78;;;21.00;99.90;;;;;;5034837;28;20056;-88
2021/10/03 09:46:41;;;;;;;3.25;2.90;;;21.00;99.90;;;;;;5034352;28;20079;-88
2021/10/03 09:49:19;;;;;;;4.32;3.38;;;21.10;99.90;;;;;;5034659;28;20085;-88
2021/10/03 09:51:48;;;;;;;5.35;3.22;;;21.00;99.90;;;;;;5032647;28;20045;-88
2021/10/03 09:54:17;;;;;;;4.57;2.90;;;20.90;99.90;;;;;;5033667;28;20059;-88
2021/10/03 09:56:45;;;;;;;4.65;2.60;;;21.00;99.90;;;;;;5034657;28;20083;-89
2021/10/03 09:59:12;;;;;;;3.25;2.80;;;21.10;99.90;;;;;;5036636;28;20494;-88
2021/10/03 10:01:46;;;;;;;4.78;3.80;;;21.20;99.90;;;;;;5032526;28;20409;-88
2021/10/03 10:04:16;;;;;;;5.60;3.10;;;21.20;99.90;;;;;;5032627;28;20107;-88
2021/10/03 10:06:44;;;;;;;3.17;2.90;;;21.30;99.90;;;;;;5034122;28;20570;-88
2021/10/03 10:09:23;;;;;;;4.40;2.80;;;21.30;99.90;;;;;;5034201;28;20132;-88
2021/10/03 10:12:12;;;;;;;3.10;2.67;;;21.30;99.90;;;;;;5034291;28;20126;-89
2021/10/03 10:14:43;;;;;;;4.32;2.80;;;21.40;99.90;;;;;;5033768;28;20156;-88
2021/10/03 10:17:31;;;;;;;5.75;2.88;;;21.50;99.90;;;;;;5033774;28;20045;-88
2021/10/03 10:20:00;;;;;;;6.22;3.33;;;21.60;99.90;;;;;;5034116;28;20076;-88
2021/10/03 10:22:29;;;;;;;4.88;3.75;;;21.60;99.90;;;;;;5034027;28;20406;-88
2021/10/03 10:24:58;;;;;;;4.00;3.15;;;21.70;99.90;;;;;;5033849;28;20056;-88
2021/10/03 10:27:25;;;;;;;7.95;2.97;;;21.80;99.90;;;;;;5033404;28;20050;-88
2021/10/03 10:30:00;;;;;;;3.45;3.15;;;22.10;99.90;;;;;;5033858;28;20137;-90
2021/10/03 10:32:29;;;;;;;6.15;3.08;;;21.90;99.90;;;;;;5033910;28;20045;-88
2021/10/03 10:35:08;;;;;;;3.95;2.92;;;21.50;99.90;;;;;;5033370;28;20052;-89
2021/10/03 10:37:51;;;;;;;3.08;2.72;;;21.30;99.90;;;;;;5033156;28;20061;-89
2021/10/03 10:40:20;;;;;;;5.38;2.97;;;20.90;99.90;;;;;;5033777;28;20049;-89
2021/10/03 10:43:21;;;;;;;2.50;2.30;;;20.90;99.90;;;;;;5033498;28;20474;-89
2021/10/03 10:45:49;;;;;;;3.83;3.00;;;20.80;99.90;;;;;;5033138;28;20128;-88
2021/10/03 10:48:17;;;;;;;3.22;2.85;;;20.60;99.90;;;;;;5033213;28;20053;-88
2021/10/03 10:50:44;;;;;;;4.75;3.38;;;20.60;99.90;;;;;;5033321;28;20133;-89
2021/10/03 10:53:26;;;;;;;4.07;3.10;;;20.70;99.90;;;;;;5033252;28;20429;-88
2021/10/03 10:56:05;;;;;;;4.05;2.60;;;20.70;99.90;;;;;;5040433;28;20053;-88
2021/10/03 10:58:58;;;;;;;2.53;2.33;;;20.60;99.90;;;;;;5025554;28;20053;-88
2021/10/03 11:01:34;;;;;;;3.65;2.78;;;20.60;99.90;;;;;;5033389;28;20061;-89
2021/10/03 11:04:25;;;;;;;3.92;3.40;;;21.10;99.90;;;;;;5044591;28;20083;-88
2021/10/03 11:06:57;;;;;;;7.40;3.78;;;21.30;99.90;;;;;;5042482;28;20536;-88
2021/10/03 11:09:28;;;;;;;9.23;3.30;;;21.80;99.90;;;;;;5037635;28;20127;-89
2021/10/03 11:12:01;;;;;;;14.00;10.07;;;22.30;99.90;;;;;;5036992;28;20405;-88
2021/10/03 11:14:28;;;;;;;7.03;5.60;;;22.40;99.90;;;;;;5035514;28;20049;-88
2021/10/03 11:17:00;;;;;;;3.53;3.03;;;22.70;99.90;;;;;;5036736;28;20051;-88
2021/10/03 11:19:37;;;;;;;5.97;3.15;;;22.90;99.90;;;;;;5035543;28;20057;-89
2021/10/03 11:22:31;;;;;;;3.05;2.75;;;23.00;99.90;;;;;;5035324;28;20053;-89
2021/10/03 11:24:58;;;;;;;3.30;3.10;;;23.30;99.90;;;;;;5038062;28;20496;-89
2021/10/03 11:27:27;;;;;;;3.00;2.72;;;23.40;99.90;;;;;;5035853;28;20053;-90
2021/10/03 11:29:56;;;;;;;7.68;5.35;;;23.70;99.90;;;;;;5034955;28;20068;-89
2021/10/03 11:32:27;;;;;;;10.63;5.32;;;23.10;99.90;;;;;;5036588;28;20045;-89
2021/10/03 11:35:03;;;;;;;6.20;3.30;;;23.60;99.90;;;;;;5035583;28;20077;-89
2021/10/03 11:37:32;;;;;;;2.95;2.75;;;23.20;99.90;;;;;;5034055;28;20060;-89
2021/10/03 11:40:02;;;;;;;6.10;3.50;;;23.20;99.90;;;;;;5033521;28;20125;-88
2021/10/03 11:42:46;;;;;;;3.15;2.95;;;23.50;99.90;;;;;;5033064;28;20508;-89
2021/10/03 11:45:14;;;;;;;4.45;3.10;;;23.70;99.90;;;;;;5032368;28;20095;-89
2021/10/03 11:47:47;;;;;;;6.20;5.47;;;24.00;99.90;;;;;;5034114;28;20069;-89
2021/10/03 11:50:28;;;;;;;3.90;3.10;;;24.00;99.90;;;;;;5034142;28;20049;-89
2021/10/03 11:53:13;;;;;;;3.25;3.05;;;23.90;99.90;;;;;;5033915;28;20124;-89
2021/10/03 11:55:42;;;;;;;6.15;2.95;;;23.90;99.90;;;;;;5034175;28;20065;-89
2021/10/03 11:58:16;;;;;;;3.03;2.83;;;24.10;99.90;;;;;;5033491;28;20051;-88
2021/10/03 12:00:52;;;;;;;4.18;2.90;;;24.50;99.90;;;;;;5033850;28;20080;-89
2021/10/03 12:03:20;;;;;;;11.38;9.15;;;24.60;99.90;;;;;;5035721;28;20050;-91
2021/10/03 12:05:48;;;;;;;11.40;7.28;;;25.10;99.90;;;;;;5035254;28;20136;-90
2021/10/03 12:08:17;;;;;;;40.53;6.63;;;25.00;99.90;;;;;;5033723;28;20041;-88
2021/10/03 12:10:48;;;;;;;4.85;2.70;;;25.20;99.90;;;;;;5035163;28;20053;-89
2021/10/03 12:13:30;;;;;;;3.55;2.20;;;25.30;98.90;;;;;;5035081;28;20132;-89
2021/10/03 12:15:58;;;;;;;5.15;2.30;;;25.70;92.70;;;;;;5034178;28;20056;-89
2021/10/03 12:18:36;;;;;;;3.35;2.20;;;26.30;95.50;;;;;;5036720;28;20049;-88
2021/10/03 12:21:17;;;;;;;3.20;1.92;;;26.30;92.60;;;;;;5033850;28;20103;-89
2021/10/03 12:24:00;;;;;;;1.95;1.85;;;26.30;87.80;;;;;;5033691;28;20128;-88
2021/10/03 12:26:35;;;;;;;1.73;1.52;;;26.20;79.50;;;;;;5032768;28;20053;-90
2021/10/03 12:29:04;;;;;;;2.30;2.10;;;26.00;78.60;;;;;;5034180;28;20487;-89
2021/10/03 12:31:54;;;;;;;2.17;1.63;;;25.60;84.90;;;;;;5034184;28;20137;-89
2021/10/03 12:34:21;;;;;;;1.73;1.63;;;25.60;81.20;;;;;;5033625;28;20084;-90
2021/10/03 12:37:34;;;;;;;1.83;1.40;;;25.80;81.60;;;;;;5035238;28;20060;-89
2021/10/03 12:40:05;;;;;;;6.00;1.80;;;25.70;79.10;;;;;;5031112;28;20048;-90
2021/10/03 12:42:32;;;;;;;3.90;1.70;;;25.50;75.70;;;;;;5034308;28;20053;-89
2021/10/03 12:45:00;;;;;;;1.65;1.55;;;25.50;76.10;;;;;;5037572;28;20080;-91
2021/10/03 12:47:27;;;;;;;1.90;1.80;;;25.10;73.30;;;;;;5036844;28;20053;-89
2021/10/03 12:49:54;;;;;;;1.75;1.60;;;25.00;76.00;;;;;;5040974;28;20049;-90
2021/10/03 12:52:21;;;;;;;1.80;1.50;;;25.00;80.50;;;;;;5040567;28;20128;-90
2021/10/03 12:54:48;;;;;;;1.50;1.40;;;24.80;78.70;;;;;;5039632;28;20049;-89
2021/10/03 12:57:15;;;;;;;1.48;1.40;;;24.80;78.40;;;;;;5038604;28;20132;-89